Montgomery, Indiana
Current Conditions -  °F | °C
As of 5:55 PM on Monday 22 Dec 2014 (Local Time) from KDCY Reporting Station
Broken Clouds Broken Clouds  
Wind Chill: 42°   Ceiling: 4800
Heat Index: 47°   Visibility: 10mi
Dew Point: 43°   Wind: 12mph
Humidity: 84%   Direction: 140°SE
Pressure: 29.66"   Gusts: NA
Location:  38.66°N, 87.05°W
Report Text: KDCY 222355Z AUTO 14010KT 10SM SCT024 BKN048 BKN070 09/06 A2966 RMK AO2 60004 T00850060 10093 20076
Loading
Personal Weather Stations






























Interactive Weather Map New forecast layout! Learn more

10-Day Weather Forecast

Advertisements
Track Severe Weather on mobile